aviador You're here:

SBCG Decoded Metar

CAMPO GRANDE in BRAZIL
Report Time2018-06-25 11:00:00
UTC Time2018-06-25 11:56:58
Flight Rules vfr VFR
Wind070° at 05 kt
W.Decomp.*RWY 06: 4.5 kt HW 2.2 kt RCW
W.Rank070° ranks 1
Current wind is below 070° avg. (8.5)
Visibility9999 m
Phenomena:N/A
Clouds:N/A
Expected CloudBase > 800 ft AGL from Temp-Dew spread
CeilingNone
Temp18°C (ISA +7)
Dew Point16°C (88% RH)
QNH1017 hPa
Density Alt2,759 ft
Elevation1,860 ft
Report Wrong Elevation
Raw Report
METAR SBCG 251100Z 07005KT CAVOK 18/16 Q1017=

Extra information for SBCG:More info

Metar Taf Metar & Taf Last 4 Metars F.Rules Stats Wind Profile Meteogram Temp Stats Airport Information Weather charts Add Link Nearby VenuesMetar ALERT Operation Metar Decoded Social comments